Bezoek onze andere website:

Meteotemplate

Home Weather Station

Saratoga


Lokaal brand risico:
CBI


Regionaal brand risico: Meer informatie



METAR rapporten vliegvelden

   
EBBR - Brussels
Gewijzigd: Feb 21 2019 4:50 am
Helder  
Helder  
   Wind: ZZW 11.1 km/h
Wind: ZZW 11.1 km/h
Temperatuur: 6°C
Voelt als: 4°C
Dauwpunt: 4°C
Vochtigheid: 87%
Barometer: 1025 mb
Zicht: meer dan 10 km
Bewolking: Helder
EBBR 210350Z 20006KT CAVOK 06/04 Q1025 NOSIG
EBAW - Antwerp
Gewijzigd: Feb 21 2019 5:20 am
Helder  
Helder  
   Wind: ZZW 9.3 km/h
Wind: ZZW 9.3 km/h
Temperatuur: 6°C
Voelt als: 4°C
Dauwpunt: 5°C
Vochtigheid: 93%
Barometer: 1025 mb
Bewolking: Helder
Zicht: 5 km
Bewolking: Helder
EBAW 210420Z AUTO 21005KT 5000 // NCD 06/05 Q1025
EHBK - Maastricht
Gewijzigd: Feb 21 2019 5:25 am
Licht bewolkt  
Licht bewolkt  
   Wind: ZZW 11.1 km/h
Wind: ZZW 11.1 km/h
Temperatuur: 6°C
Voelt als: 4°C
Dauwpunt: 4°C
Vochtigheid: 87%
Barometer: 1025 mb
Bewolking: Licht bewolkt
Zicht: meer dan 10 km
Bewolking: Licht bewolkt 1005.8 m
EHBK 210425Z AUTO 20006KT 9999 FEW033 06/04 Q1025
EDLV - Nijmegen
Gewijzigd: Feb 21 2019 5:20 am
Helder  
Helder  
   Wind: ZZW 9.3 km/h
Wind: ZZW 9.3 km/h
Temperatuur: 5°C
Voelt als: 3°C
Dauwpunt: 4°C
Vochtigheid: 93%
Barometer: 1025 mb
Zicht: meer dan 10 km
Bewolking: Helder
EDLV 210420Z 21005KT CAVOK 05/04 Q1025
EHRD - Rotterdam
Gewijzigd: Feb 21 2019 5:25 am
Gedeeltelijk bewolkt  
Gedeeltelijk bewolkt  
   Wind: ZZW 11.1 km/h
Wind: ZZW 11.1 km/h
Temperatuur: 6°C
Voelt als: 4°C
Dauwpunt: 4°C
Vochtigheid: 87%
Barometer: 1024 mb
Bewolking: Gedeeltelijk bewolkt
Zicht: meer dan 10 km
Bewolking: Gedeeltelijk bewolkt 1097.3 m
EHRD 210425Z AUTO 20006KT 170V240 9999 SCT036 06/04 Q1024 NOSIG
 

Script ontwikkeld door  Saratoga-weather.org Aangepast voor de template door  Weerstation Leuven

U vindt ons ook hier:

Het Weer Aktueel

UK Metoffice

European Weather Network

WeatherCloud

Weather Underground

Benelux Weer Netwerk

AWEKAS

Citizen Weather Observer Program (CWOP)

Apparatuur in gebruik:

Weerstation
Davis VP2

Weerprogramma
Meteobridge

Weercomputer
TP-Link MR3020

Davis VP2

Meteobridge

TP-Link MR3020